Time;durP1;ratioP1;P1;durP2;ratioP2;P2;SDS_P1;SDS_P2;PMS_P1;PMS_P2;Temp;Humidity;BMP_temperature;BMP_pressure;BME280_temperature;BME280_humidity;BME280_pressure;Samples;Min_cycle;Max_cycle;Signal;HPM_P1;HPM_P2
2021/05/01 00:00:08;;;;;;;20.70;13.98;;;9.20;99.90;;;;;;5097140;28;20448;-79
2021/05/01 00:02:35;;;;;;;21.52;15.15;;;9.20;99.90;;;;;;5096275;28;20063;-80
2021/05/01 00:05:01;;;;;;;22.52;16.27;;;9.20;99.90;;;;;;5096457;28;20131;-80
2021/05/01 00:07:28;;;;;;;21.20;14.63;;;9.20;99.90;;;;;;5097028;28;20054;-80
2021/05/01 00:09:55;;;;;;;20.13;13.65;;;9.10;99.90;;;;;;5075791;28;20063;-80
2021/05/01 00:12:21;;;;;;;20.50;13.98;;;9.00;99.90;;;;;;5091482;28;20501;-79
2021/05/01 00:14:48;;;;;;;22.30;14.90;;;9.00;99.90;;;;;;5096304;28;20079;-79
2021/05/01 00:17:15;;;;;;;19.05;13.15;;;9.00;99.90;;;;;;5096698;28;20071;-78
2021/05/01 00:19:42;;;;;;;20.25;13.50;;;9.00;99.90;;;;;;5096274;28;20068;-79
2021/05/01 00:22:09;;;;;;;22.38;14.50;;;8.90;99.90;;;;;;5096622;28;20469;-80
2021/05/01 00:24:35;;;;;;;19.67;13.60;;;8.90;99.90;;;;;;5096687;28;20075;-79
2021/05/01 00:27:02;;;;;;;19.80;13.27;;;8.90;99.90;;;;;;5096251;28;20083;-80
2021/05/01 00:29:29;;;;;;;19.98;13.35;;;9.00;99.90;;;;;;5096653;28;20051;-79
2021/05/01 00:31:55;;;;;;;19.80;13.25;;;9.00;99.90;;;;;;5095996;28;20517;-80
2021/05/01 00:34:23;;;;;;;21.55;14.30;;;8.90;99.90;;;;;;5096104;28;20584;-80
2021/05/01 00:36:50;;;;;;;20.35;13.88;;;9.00;99.90;;;;;;5096093;28;20091;-78
2021/05/01 00:39:16;;;;;;;18.80;12.68;;;8.80;99.90;;;;;;5096599;28;20115;-78
2021/05/01 00:41:45;;;;;;;17.95;12.40;;;8.90;99.90;;;;;;5096721;28;20080;-80
2021/05/01 00:44:12;;;;;;;19.48;13.55;;;8.90;99.90;;;;;;5096795;28;20048;-79
2021/05/01 00:46:39;;;;;;;19.63;14.18;;;8.90;99.90;;;;;;5095818;28;20505;-80
2021/05/01 00:49:05;;;;;;;19.35;13.90;;;8.90;99.90;;;;;;5081976;28;20078;-79
2021/05/01 00:51:33;;;;;;;19.80;13.73;;;8.90;99.90;;;;;;5107257;28;20043;-80
2021/05/01 00:54:00;;;;;;;20.77;14.85;;;9.00;99.90;;;;;;5109040;28;20406;-78
2021/05/01 00:56:26;;;;;;;22.27;14.57;;;8.90;99.90;;;;;;5104349;27;20056;-79
2021/05/01 00:58:54;;;;;;;21.83;15.27;;;8.90;99.90;;;;;;5099161;28;20044;-79
2021/05/01 01:01:23;;;;;;;23.05;15.73;;;8.90;99.90;;;;;;5098001;28;20094;-80
2021/05/01 01:03:49;;;;;;;21.73;14.45;;;8.90;99.90;;;;;;5091860;28;20057;-78
2021/05/01 01:06:16;;;;;;;20.00;13.90;;;8.90;99.90;;;;;;5090866;28;20084;-79
2021/05/01 01:08:45;;;;;;;21.90;14.75;;;8.80;99.90;;;;;;5094365;28;20040;-80
2021/05/01 01:11:12;;;;;;;20.50;13.55;;;8.70;99.90;;;;;;5095532;28;20139;-79
2021/05/01 01:13:39;;;;;;;21.10;14.60;;;8.60;99.90;;;;;;5095340;28;20399;-80
2021/05/01 01:16:06;;;;;;;21.88;14.70;;;8.60;99.90;;;;;;5074500;28;20466;-79
2021/05/01 01:18:34;;;;;;;21.02;13.43;;;8.40;99.90;;;;;;5091967;28;20173;-80
2021/05/01 01:21:04;;;;;;;19.63;12.57;;;8.40;99.90;;;;;;5095173;28;20090;-78
2021/05/01 01:23:32;;;;;;;21.27;13.52;;;8.40;99.90;;;;;;5095610;28;20131;-79
2021/05/01 01:25:59;;;;;;;20.75;13.23;;;8.40;99.90;;;;;;5094744;28;20123;-79
2021/05/01 01:28:27;;;;;;;21.30;13.77;;;8.40;99.90;;;;;;5095287;28;20490;-78
2021/05/01 01:30:54;;;;;;;20.00;13.13;;;8.40;99.90;;;;;;5095699;28;20554;-79
2021/05/01 01:33:21;;;;;;;20.73;13.30;;;8.40;99.90;;;;;;5095816;28;20079;-79
2021/05/01 01:35:48;;;;;;;19.52;12.80;;;8.40;99.90;;;;;;5095434;28;20143;-79
2021/05/01 01:38:15;;;;;;;20.67;13.10;;;8.40;99.90;;;;;;5095210;28;20178;-80
2021/05/01 01:40:43;;;;;;;17.98;12.32;;;8.50;99.90;;;;;;5090022;28;20094;-79
2021/05/01 01:43:09;;;;;;;20.85;13.73;;;8.50;99.90;;;;;;5088363;28;20040;-79
2021/05/01 01:45:37;;;;;;;19.95;12.75;;;8.60;99.90;;;;;;5100270;28;20040;-79
2021/05/01 01:48:05;;;;;;;20.13;13.20;;;8.50;99.90;;;;;;5105249;28;20079;-80
2021/05/01 01:50:31;;;;;;;22.30;14.75;;;8.70;99.90;;;;;;5091145;28;20048;-79
2021/05/01 01:52:59;;;;;;;21.80;13.30;;;8.70;99.90;;;;;;5105421;28;20056;-79
2021/05/01 01:55:26;;;;;;;20.27;13.40;;;8.70;99.90;;;;;;5106187;28;20082;-80
2021/05/01 01:57:54;;;;;;;21.42;14.43;;;8.70;99.90;;;;;;5108353;28;20055;-78
2021/05/01 02:00:24;;;;;;;23.85;15.45;;;8.70;99.90;;;;;;5099198;28;20056;-79
2021/05/01 02:02:51;;;;;;;22.25;14.95;;;8.70;99.90;;;;;;5095073;28;20098;-79
2021/05/01 02:05:18;;;;;;;21.48;15.27;;;8.70;99.90;;;;;;5094882;28;20476;-79
2021/05/01 02:07:45;;;;;;;20.33;12.90;;;8.70;99.90;;;;;;5094626;28;20083;-79
2021/05/01 02:10:14;;;;;;;19.50;12.90;;;8.70;99.90;;;;;;5094499;28;20139;-80
2021/05/01 02:12:41;;;;;;;19.15;12.93;;;8.60;99.90;;;;;;5090184;28;20062;-79
2021/05/01 02:15:13;;;;;;;19.17;12.93;;;8.70;99.90;;;;;;5097941;28;20362;-79
2021/05/01 02:17:42;;;;;;;20.52;13.68;;;8.70;99.90;;;;;;5104486;28;20063;-78
2021/05/01 02:20:11;;;;;;;20.52;13.60;;;8.70;99.90;;;;;;5104294;28;20064;-78
2021/05/01 02:22:38;;;;;;;21.38;14.07;;;8.70;99.90;;;;;;5098254;28;20518;-79
2021/05/01 02:25:08;;;;;;;20.83;14.10;;;8.70;99.90;;;;;;5078064;28;20552;-78
2021/05/01 02:27:35;;;;;;;20.60;13.65;;;8.70;99.90;;;;;;5094292;28;20084;-78
2021/05/01 02:30:04;;;;;;;20.33;13.52;;;8.80;99.90;;;;;;5094726;28;20156;-79
2021/05/01 02:32:32;;;;;;;20.60;13.60;;;8.80;99.90;;;;;;5111135;28;20602;-78
2021/05/01 02:34:59;;;;;;;20.25;13.85;;;8.80;99.90;;;;;;5076739;28;20070;-79
2021/05/01 02:37:25;;;;;;;24.20;13.90;;;8.80;99.90;;;;;;5094742;28;20048;-79
2021/05/01 02:39:53;;;;;;;19.20;13.73;;;8.80;99.90;;;;;;5095517;28;20079;-78
2021/05/01 02:42:20;;;;;;;19.23;13.13;;;8.90;99.90;;;;;;5095214;28;20063;-78
2021/05/01 02:44:46;;;;;;;20.35;14.40;;;8.80;99.90;;;;;;5095470;28;20578;-80
2021/05/01 02:47:14;;;;;;;19.23;13.43;;;8.90;99.90;;;;;;5094589;28;20079;-79
2021/05/01 02:49:42;;;;;;;21.00;14.32;;;8.90;99.90;;;;;;5094442;28;20051;-78
2021/05/01 02:52:08;;;;;;;19.13;13.75;;;8.90;99.90;;;;;;5093742;28;20082;-79
2021/05/01 02:54:35;;;;;;;18.25;13.13;;;9.00;99.90;;;;;;5089260;28;20048;-79
2021/05/01 02:57:02;;;;;;;20.90;14.38;;;8.80;99.90;;;;;;5093434;28;20047;-80
2021/05/01 02:59:28;;;;;;;19.13;12.90;;;8.80;99.90;;;;;;5093876;28;20088;-79
2021/05/01 03:01:55;;;;;;;18.92;12.90;;;8.90;99.90;;;;;;5093549;28;20032;-78
2021/05/01 03:04:22;;;;;;;20.30;13.98;;;9.00;99.90;;;;;;5091708;28;20075;-79
2021/05/01 03:06:49;;;;;;;18.58;13.02;;;9.00;99.90;;;;;;5092374;28;20048;-79
2021/05/01 03:09:16;;;;;;;18.50;13.43;;;9.00;99.90;;;;;;5091386;28;20071;-79
2021/05/01 03:11:43;;;;;;;18.02;12.05;;;9.00;99.90;;;;;;5091137;28;20092;-79
2021/05/01 03:14:09;;;;;;;17.80;11.80;;;8.90;99.90;;;;;;5091719;28;20494;-78
2021/05/01 03:16:36;;;;;;;18.83;12.77;;;9.00;99.90;;;;;;5091584;28;20087;-78
2021/05/01 03:19:03;;;;;;;17.65;12.15;;;9.00;99.90;;;;;;5091297;28;20481;-79
2021/05/01 03:21:29;;;;;;;17.88;12.15;;;9.00;99.90;;;;;;5091551;28;20063;-79
2021/05/01 03:23:57;;;;;;;16.27;11.90;;;9.00;99.90;;;;;;5090949;28;20048;-79
2021/05/01 03:26:24;;;;;;;16.85;11.82;;;9.00;99.90;;;;;;5091813;28;20127;-79
2021/05/01 03:28:51;;;;;;;17.55;12.45;;;9.00;99.90;;;;;;5091476;28;20072;-79
2021/05/01 03:31:18;;;;;;;16.55;11.63;;;9.00;99.90;;;;;;5091265;28;20079;-78
2021/05/01 03:33:44;;;;;;;18.08;11.85;;;8.90;99.90;;;;;;5091425;28;20051;-79
2021/05/01 03:36:11;;;;;;;19.52;13.23;;;8.90;99.90;;;;;;5090497;28;20127;-79
2021/05/01 03:38:38;;;;;;;20.45;13.43;;;8.80;99.90;;;;;;5091910;28;20084;-79
2021/05/01 03:41:05;;;;;;;18.67;12.70;;;9.00;99.90;;;;;;5083927;28;20143;-79
2021/05/01 03:43:32;;;;;;;19.10;12.70;;;8.80;99.90;;;;;;5091795;28;20083;-79
2021/05/01 03:45:59;;;;;;;17.52;12.10;;;8.90;99.90;;;;;;5090796;28;20135;-79
2021/05/01 03:48:26;;;;;;;18.92;12.55;;;8.80;99.90;;;;;;5091732;28;20056;-78
2021/05/01 03:50:52;;;;;;;18.58;12.95;;;9.00;99.90;;;;;;5091160;28;20067;-79
2021/05/01 03:53:19;;;;;;;20.63;14.02;;;8.90;99.90;;;;;;5091282;28;20048;-80
2021/05/01 03:55:46;;;;;;;18.83;12.88;;;8.90;99.90;;;;;;5091148;28;20052;-79
2021/05/01 03:58:14;;;;;;;20.92;13.45;;;9.00;99.90;;;;;;5090773;28;20383;-79
2021/05/01 04:00:40;;;;;;;21.42;13.77;;;8.90;99.90;;;;;;5091650;28;20447;-77
2021/05/01 04:03:07;;;;;;;21.25;14.35;;;9.00;99.90;;;;;;5093282;28;20558;-79
2021/05/01 04:05:34;;;;;;;19.17;12.73;;;9.00;99.90;;;;;;5095321;28;20138;-79
2021/05/01 04:08:01;;;;;;;18.95;12.95;;;9.00;99.90;;;;;;5075911;28;20143;-79
2021/05/01 04:10:28;;;;;;;19.35;13.98;;;9.00;99.90;;;;;;5091458;28;20083;-79
2021/05/01 04:12:54;;;;;;;19.23;13.57;;;9.00;99.90;;;;;;5096270;28;20105;-79
2021/05/01 04:15:22;;;;;;;19.63;12.75;;;8.90;99.90;;;;;;5097402;28;20461;-79
2021/05/01 04:17:49;;;;;;;19.23;13.32;;;9.00;99.90;;;;;;5096718;28;20052;-79
2021/05/01 04:20:16;;;;;;;19.65;13.85;;;9.00;99.90;;;;;;5106792;28;20063;-79
2021/05/01 04:22:43;;;;;;;19.55;13.50;;;8.90;99.90;;;;;;5107413;28;20477;-78
2021/05/01 04:25:11;;;;;;;20.52;14.40;;;8.90;99.90;;;;;;5086352;28;20120;-78
2021/05/01 04:27:38;;;;;;;21.33;14.40;;;9.00;99.90;;;;;;5097708;28;20052;-77
2021/05/01 04:30:07;;;;;;;20.10;13.23;;;9.00;99.90;;;;;;5075147;28;20112;-79
2021/05/01 04:32:35;;;;;;;20.33;13.65;;;9.00;99.90;;;;;;5092368;28;20509;-79
2021/05/01 04:35:03;;;;;;;20.40;14.00;;;9.00;99.90;;;;;;5096297;28;20101;-78
2021/05/01 04:37:29;;;;;;;21.40;14.95;;;9.00;99.90;;;;;;5092282;28;20136;-79
2021/05/01 04:39:56;;;;;;;21.50;14.32;;;9.00;99.90;;;;;;5087074;28;20143;-78
2021/05/01 04:42:22;;;;;;;21.40;14.68;;;8.90;99.90;;;;;;5097185;28;20067;-79
2021/05/01 04:44:49;;;;;;;21.58;15.23;;;9.10;99.90;;;;;;5092851;28;20045;-78
2021/05/01 04:47:16;;;;;;;20.60;14.70;;;9.10;99.90;;;;;;5089778;28;20051;-78
2021/05/01 04:49:44;;;;;;;20.55;14.60;;;9.10;99.90;;;;;;5096744;28;20091;-78
2021/05/01 04:52:11;;;;;;;19.00;13.40;;;9.10;99.90;;;;;;5096405;28;20484;-78
2021/05/01 04:54:37;;;;;;;19.73;13.52;;;9.00;99.90;;;;;;5095888;28;20101;-79
2021/05/01 04:57:05;;;;;;;20.52;14.40;;;9.00;99.90;;;;;;5096572;28;20456;-79
2021/05/01 04:59:32;;;;;;;19.50;13.25;;;9.00;99.90;;;;;;5094728;28;20079;-79
2021/05/01 05:01:58;;;;;;;22.55;14.00;;;9.00;99.90;;;;;;5095420;28;20048;-79
2021/05/01 05:04:25;;;;;;;18.83;13.15;;;9.00;99.90;;;;;;5097009;28;20606;-78
2021/05/01 05:06:53;;;;;;;20.33;13.32;;;8.90;99.90;;;;;;5095632;28;20148;-79
2021/05/01 05:09:19;;;;;;;19.08;13.15;;;9.00;99.90;;;;;;5095269;28;20048;-79
2021/05/01 05:11:46;;;;;;;19.98;13.65;;;9.00;99.90;;;;;;5095236;28;20104;-79
2021/05/01 05:14:12;;;;;;;22.38;14.27;;;9.10;99.90;;;;;;5094922;28;20131;-79
2021/05/01 05:16:39;;;;;;;20.48;13.60;;;9.00;99.90;;;;;;5094114;28;20202;-80
2021/05/01 05:19:05;;;;;;;20.48;13.48;;;9.10;99.90;;;;;;5095262;28;20087;-79
2021/05/01 05:21:34;;;;;;;20.30;14.00;;;9.10;99.90;;;;;;5095123;28;20086;-79
2021/05/01 05:24:04;;;;;;;20.23;13.48;;;9.10;99.90;;;;;;5094446;28;20056;-79
2021/05/01 05:26:31;;;;;;;21.05;13.68;;;9.10;99.90;;;;;;5094500;28;20086;-79
2021/05/01 05:28:58;;;;;;;19.58;13.93;;;9.10;99.90;;;;;;5094962;28;20486;-79
2021/05/01 05:31:24;;;;;;;18.98;13.40;;;9.20;99.90;;;;;;5095163;28;20063;-79
2021/05/01 05:33:51;;;;;;;19.38;13.85;;;9.20;99.90;;;;;;5099653;28;20076;-80
2021/05/01 05:36:17;;;;;;;19.92;13.40;;;9.20;99.90;;;;;;5105790;28;20097;-78
2021/05/01 05:38:44;;;;;;;20.85;14.05;;;9.20;99.90;;;;;;5100747;28;20059;-80
2021/05/01 05:41:13;;;;;;;19.63;13.68;;;9.20;99.90;;;;;;5098850;28;20052;-82
2021/05/01 05:43:40;;;;;;;20.23;14.10;;;9.20;99.90;;;;;;5089499;28;20119;-80
2021/05/01 05:46:12;;;;;;;19.42;13.75;;;9.20;99.90;;;;;;5074213;28;20052;-81
2021/05/01 05:48:40;;;;;;;20.67;13.48;;;9.30;99.90;;;;;;5075606;28;20074;-81
2021/05/01 05:51:07;;;;;;;20.73;13.57;;;9.40;99.90;;;;;;5074739;28;20079;-80
2021/05/01 05:53:34;;;;;;;18.88;12.57;;;9.40;99.90;;;;;;5074576;28;20139;-80
2021/05/01 05:56:01;;;;;;;18.33;11.75;;;9.40;99.90;;;;;;5073767;28;20052;-80
2021/05/01 05:58:29;;;;;;;17.65;11.82;;;9.40;99.90;;;;;;5086536;28;20405;-79
2021/05/01 06:00:55;;;;;;;17.13;11.63;;;9.50;99.90;;;;;;5075455;28;20545;-81
2021/05/01 06:03:25;;;;;;;17.13;12.05;;;9.50;99.90;;;;;;5075319;28;20072;-82
2021/05/01 06:05:56;;;;;;;17.60;11.93;;;9.50;99.90;;;;;;5075413;28;20064;-81
2021/05/01 06:08:24;;;;;;;18.80;13.02;;;9.60;99.90;;;;;;5081021;28;20044;-82
2021/05/01 06:10:52;;;;;;;17.70;12.68;;;9.60;99.90;;;;;;5078936;28;20127;-82
2021/05/01 06:13:21;;;;;;;18.38;12.98;;;9.60;99.90;;;;;;5090216;28;20048;-82
2021/05/01 06:15:51;;;;;;;19.05;13.20;;;9.70;99.90;;;;;;5076786;28;20044;-82
2021/05/01 06:18:23;;;;;;;17.38;12.77;;;9.70;99.90;;;;;;5080576;28;20132;-82
2021/05/01 06:20:50;;;;;;;18.52;12.63;;;9.80;99.90;;;;;;5089766;28;20446;-81
2021/05/01 06:23:17;;;;;;;18.60;12.63;;;9.80;99.90;;;;;;5079379;28;20133;-81
2021/05/01 06:25:46;;;;;;;19.20;13.50;;;9.80;99.80;;;;;;5085553;28;20124;-83
2021/05/01 06:28:13;;;;;;;18.75;13.27;;;9.80;99.60;;;;;;5084462;28;20532;-78
2021/05/01 06:30:42;;;;;;;19.30;13.45;;;9.90;99.60;;;;;;5093470;28;20127;-78
2021/05/01 06:33:12;;;;;;;18.98;13.57;;;9.90;99.60;;;;;;5084642;28;20040;-79
2021/05/01 06:35:42;;;;;;;19.70;13.93;;;9.90;99.60;;;;;;5094160;28;20048;-79
2021/05/01 06:38:10;;;;;;;18.52;13.18;;;10.00;99.40;;;;;;5093405;28;20041;-79
2021/05/01 06:40:40;;;;;;;20.80;14.00;;;10.00;99.20;;;;;;5092106;28;20056;-79
2021/05/01 06:43:14;;;;;;;18.80;13.00;;;10.10;99.00;;;;;;5093807;28;20127;-78
2021/05/01 06:45:47;;;;;;;18.98;13.40;;;10.10;99.10;;;;;;5089781;28;20086;-81
2021/05/01 06:48:21;;;;;;;17.65;12.80;;;10.10;99.00;;;;;;5086337;28;20150;-80
2021/05/01 06:50:49;;;;;;;17.83;12.48;;;10.10;98.90;;;;;;5078412;28;20428;-79
2021/05/01 06:53:25;;;;;;;19.58;13.60;;;10.20;98.70;;;;;;5084429;28;20079;-80
2021/05/01 06:55:53;;;;;;;16.05;10.77;;;10.10;98.10;;;;;;5090955;28;20044;-79
2021/05/01 06:58:22;;;;;;;17.60;12.80;;;10.00;98.30;;;;;;5086597;28;20112;-80
2021/05/01 07:00:50;;;;;;;16.42;11.52;;;10.00;98.10;;;;;;5078486;28;20105;-78
2021/05/01 07:03:21;;;;;;;16.88;11.82;;;10.00;98.30;;;;;;5088034;28;20144;-79
2021/05/01 07:05:49;;;;;;;16.55;11.18;;;10.00;98.30;;;;;;5089975;28;20126;-79
2021/05/01 07:08:15;;;;;;;17.27;11.82;;;10.00;98.20;;;;;;5090819;28;20047;-80
2021/05/01 07:10:42;;;;;;;16.40;11.98;;;10.00;98.10;;;;;;5088516;28;20457;-81
2021/05/01 07:13:15;;;;;;;16.10;11.25;;;10.00;98.00;;;;;;5083673;28;20079;-79
2021/05/01 07:15:42;;;;;;;17.65;11.95;;;10.00;98.10;;;;;;5059169;28;20094;-79
2021/05/01 07:18:11;;;;;;;17.65;12.88;;;10.00;98.10;;;;;;5084738;28;20048;-79
2021/05/01 07:20:39;;;;;;;17.42;11.48;;;10.00;98.20;;;;;;5091918;28;20079;-80
2021/05/01 07:23:06;;;;;;;16.55;11.18;;;10.10;98.10;;;;;;5092180;28;20068;-79
2021/05/01 07:25:33;;;;;;;16.90;11.93;;;10.10;98.10;;;;;;5093404;28;20043;-79
2021/05/01 07:28:04;;;;;;;15.57;10.75;;;10.10;97.90;;;;;;5092681;28;20056;-80
2021/05/01 07:30:35;;;;;;;15.88;11.35;;;10.20;97.70;;;;;;5085300;28;20076;-78
2021/05/01 07:33:09;;;;;;;14.43;10.35;;;10.20;97.90;;;;;;5089118;28;20139;-79
2021/05/01 07:35:40;;;;;;;15.82;11.02;;;10.20;98.00;;;;;;5084529;28;20510;-79
2021/05/01 07:38:12;;;;;;;16.58;11.02;;;10.20;98.40;;;;;;5066059;28;20521;-81
2021/05/01 07:40:39;;;;;;;15.57;9.80;;;10.20;98.00;;;;;;5081988;28;20052;-79
2021/05/01 07:43:07;;;;;;;15.43;10.60;;;10.20;98.10;;;;;;5091187;28;20101;-78
2021/05/01 07:45:35;;;;;;;14.02;9.90;;;10.20;98.20;;;;;;5090356;28;20040;-79
2021/05/01 07:48:04;;;;;;;15.45;11.10;;;10.20;98.10;;;;;;5087685;28;20048;-80
2021/05/01 07:50:31;;;;;;;16.23;10.75;;;10.30;97.90;;;;;;5083365;28;20135;-79
2021/05/01 07:53:00;;;;;;;16.67;11.95;;;10.30;97.70;;;;;;5085734;28;20136;-78
2021/05/01 07:55:26;;;;;;;18.10;12.07;;;10.30;97.70;;;;;;5085868;28;20066;-78
2021/05/01 07:57:53;;;;;;;18.05;11.98;;;10.30;97.60;;;;;;5078610;28;20143;-79
2021/05/01 08:00:21;;;;;;;14.27;10.43;;;10.30;97.40;;;;;;5097461;28;20051;-79
2021/05/01 08:02:48;;;;;;;15.55;11.02;;;10.30;97.40;;;;;;5095926;28;20079;-78
2021/05/01 08:05:18;;;;;;;16.83;11.52;;;10.40;97.40;;;;;;5095901;28;20516;-77
2021/05/01 08:07:45;;;;;;;16.52;11.32;;;10.40;97.40;;;;;;5096555;28;20075;-79
2021/05/01 08:10:13;;;;;;;17.50;12.45;;;10.30;97.30;;;;;;5091379;28;20599;-78
2021/05/01 08:12:40;;;;;;;17.30;11.88;;;10.40;97.40;;;;;;5094368;28;20516;-81
2021/05/01 08:15:09;;;;;;;17.00;11.90;;;10.40;97.40;;;;;;5095357;28;20071;-79
2021/05/01 08:17:40;;;;;;;19.45;12.43;;;10.50;97.10;;;;;;5085346;28;20055;-78
2021/05/01 08:20:07;;;;;;;16.70;11.82;;;10.50;97.00;;;;;;5081668;28;20040;-78
2021/05/01 08:22:36;;;;;;;18.70;12.45;;;10.60;97.00;;;;;;5085447;28;20497;-80
2021/05/01 08:25:03;;;;;;;17.02;12.15;;;10.60;97.10;;;;;;5076326;28;20048;-79
2021/05/01 08:27:31;;;;;;;18.90;12.93;;;10.60;97.10;;;;;;5095411;28;20493;-80
2021/05/01 08:29:59;;;;;;;19.15;13.07;;;10.70;96.90;;;;;;5097707;28;20087;-79
2021/05/01 08:32:25;;;;;;;18.13;13.02;;;10.70;96.80;;;;;;5075574;28;20056;-80
2021/05/01 08:34:52;;;;;;;17.90;12.88;;;10.70;96.70;;;;;;5084892;28;20073;-78
2021/05/01 08:37:19;;;;;;;20.65;13.77;;;10.80;96.80;;;;;;5098177;28;20143;-78
2021/05/01 08:39:46;;;;;;;21.73;14.45;;;10.80;96.80;;;;;;5109519;28;20103;-78
2021/05/01 08:42:12;;;;;;;20.83;14.18;;;10.80;96.80;;;;;;5086292;28;20124;-78
2021/05/01 08:44:40;;;;;;;21.25;14.13;;;10.60;96.70;;;;;;5080496;28;20506;-79
2021/05/01 08:47:07;;;;;;;18.20;12.95;;;10.70;96.90;;;;;;5084236;28;20185;-79
2021/05/01 08:49:34;;;;;;;18.55;12.98;;;10.80;96.70;;;;;;5089021;28;20083;-77
2021/05/01 08:52:00;;;;;;;18.65;12.70;;;10.80;96.60;;;;;;5099258;28;20524;-78
2021/05/01 08:54:27;;;;;;;18.38;12.65;;;10.90;96.90;;;;;;5102372;28;20079;-79
2021/05/01 08:56:54;;;;;;;18.35;12.68;;;10.90;96.70;;;;;;5095320;28;20464;-79
2021/05/01 08:59:21;;;;;;;17.98;13.23;;;10.90;96.80;;;;;;5095691;28;20097;-78
2021/05/01 09:01:52;;;;;;;20.83;14.32;;;11.00;96.80;;;;;;5093669;28;20414;-79
2021/05/01 09:04:19;;;;;;;20.60;13.65;;;11.10;95.90;;;;;;5091298;28;20497;-80
2021/05/01 09:06:47;;;;;;;18.60;13.65;;;11.10;96.00;;;;;;5083167;28;20102;-78
2021/05/01 09:09:14;;;;;;;22.35;13.82;;;11.10;95.70;;;;;;5089895;28;20044;-80
2021/05/01 09:11:44;;;;;;;19.98;14.20;;;11.10;95.90;;;;;;5062882;28;20135;-79
2021/05/01 09:14:17;;;;;;;20.15;13.38;;;11.10;95.90;;;;;;5088773;28;20143;-80
2021/05/01 09:16:45;;;;;;;19.42;13.43;;;11.10;96.00;;;;;;5105439;28;20127;-80
2021/05/01 09:19:12;;;;;;;21.13;13.93;;;11.10;96.10;;;;;;5095667;28;20129;-80
2021/05/01 09:21:39;;;;;;;19.80;13.38;;;11.10;96.20;;;;;;5095252;28;20555;-81
2021/05/01 09:24:07;;;;;;;21.55;14.40;;;11.10;96.20;;;;;;5094987;28;20080;-80
2021/05/01 09:26:36;;;;;;;21.35;14.05;;;11.10;96.10;;;;;;5092453;28;20074;-80
2021/05/01 09:29:04;;;;;;;17.63;12.15;;;11.10;96.00;;;;;;5095398;28;20083;-81
2021/05/01 09:31:40;;;;;;;19.58;13.15;;;11.10;96.20;;;;;;5090205;28;20455;-80
2021/05/01 09:34:07;;;;;;;21.10;13.63;;;11.10;96.30;;;;;;5086341;28;20482;-78
2021/05/01 09:36:36;;;;;;;18.55;12.93;;;11.10;96.30;;;;;;5095257;28;20127;-80
2021/05/01 09:39:11;;;;;;;17.52;12.82;;;11.10;96.40;;;;;;5094785;28;20094;-78
2021/05/01 09:41:40;;;;;;;17.42;12.27;;;11.20;96.40;;;;;;5094394;28;20076;-78
2021/05/01 09:44:09;;;;;;;20.20;13.70;;;11.30;96.50;;;;;;5095263;28;20082;-80
2021/05/01 09:46:49;;;;;;;19.55;13.10;;;11.30;96.30;;;;;;5094933;28;20135;-81
2021/05/01 09:49:20;;;;;;;17.45;11.48;;;11.30;96.30;;;;;;5080159;28;20481;-79
2021/05/01 09:51:52;;;;;;;22.15;14.43;;;11.40;96.10;;;;;;5094854;28;20130;-79
2021/05/01 09:54:24;;;;;;;19.10;13.60;;;11.40;96.10;;;;;;5094835;28;20044;-79
2021/05/01 09:56:52;;;;;;;19.10;12.63;;;11.50;96.00;;;;;;5092606;28;20127;-81
2021/05/01 09:59:19;;;;;;;19.50;13.75;;;11.50;95.90;;;;;;5092689;28;20051;-79
2021/05/01 10:01:58;;;;;;;16.20;11.85;;;11.60;96.00;;;;;;5076994;28;20123;-81
2021/05/01 10:04:26;;;;;;;18.40;12.95;;;11.60;96.00;;;;;;5087574;28;20108;-80
2021/05/01 10:06:57;;;;;;;18.83;13.05;;;11.70;95.50;;;;;;5083552;28;20048;-80
2021/05/01 10:09:29;;;;;;;17.20;12.85;;;11.70;95.20;;;;;;5078635;28;20409;-76
2021/05/01 10:12:09;;;;;;;18.05;12.63;;;11.80;95.20;;;;;;5080669;28;20083;-79
2021/05/01 10:14:48;;;;;;;19.98;14.27;;;11.80;94.90;;;;;;5101224;28;20048;-78
2021/05/01 10:17:17;;;;;;;16.42;11.38;;;11.90;94.50;;;;;;5080093;28;20078;-80
2021/05/01 10:19:53;;;;;;;16.58;11.60;;;11.90;95.10;;;;;;5091214;28;20549;-79
2021/05/01 10:22:31;;;;;;;16.92;12.57;;;12.00;95.10;;;;;;5091990;28;20066;-79
2021/05/01 10:25:01;;;;;;;15.75;11.18;;;12.10;95.40;;;;;;5093592;28;20083;-80
2021/05/01 10:27:28;;;;;;;19.42;11.50;;;12.20;95.10;;;;;;5087052;28;20132;-81
2021/05/01 10:30:09;;;;;;;15.88;11.77;;;12.30;95.10;;;;;;5088376;28;20059;-81
2021/05/01 10:32:52;;;;;;;16.02;11.13;;;12.40;94.80;;;;;;5081441;28;20053;-80
2021/05/01 10:35:20;;;;;;;18.55;13.55;;;12.40;94.10;;;;;;5104670;28;20107;-81
2021/05/01 10:37:56;;;;;;;18.90;12.57;;;12.40;94.00;;;;;;5103829;28;20052;-81
2021/05/01 10:40:25;;;;;;;16.42;11.70;;;12.40;93.80;;;;;;5100164;28;20044;-82
2021/05/01 10:43:15;;;;;;;16.10;10.93;;;12.30;93.50;;;;;;5094574;28;20567;-82
2021/05/01 10:45:53;;;;;;;15.68;10.98;;;12.30;93.70;;;;;;5084755;28;20079;-81
2021/05/01 10:48:21;;;;;;;16.85;12.18;;;12.20;93.80;;;;;;5083299;28;20040;-79
2021/05/01 10:51:05;;;;;;;16.00;11.13;;;12.10;93.60;;;;;;5089677;28;20092;-83
2021/05/01 10:53:33;;;;;;;15.05;10.50;;;12.10;93.70;;;;;;5079120;28;20053;-78
2021/05/01 10:56:01;;;;;;;15.93;10.40;;;12.10;94.30;;;;;;5084868;28;20131;-77
2021/05/01 10:58:37;;;;;;;15.93;11.05;;;12.00;94.10;;;;;;5098795;28;20084;-79
2021/05/01 11:01:06;;;;;;;15.77;10.60;;;12.10;94.20;;;;;;5103937;28;20109;-78
2021/05/01 11:03:45;;;;;;;13.90;10.40;;;12.00;94.30;;;;;;5101552;28;20460;-79
2021/05/01 11:06:22;;;;;;;14.32;10.13;;;12.00;94.20;;;;;;5096532;28;20078;-78
2021/05/01 11:08:58;;;;;;;12.93;9.18;;;12.00;94.70;;;;;;5099620;28;20123;-78
2021/05/01 11:11:32;;;;;;;15.80;10.77;;;12.00;94.70;;;;;;5094992;28;20047;-79
2021/05/01 11:14:08;;;;;;;14.38;10.30;;;11.80;94.80;;;;;;5101241;28;20055;-79
2021/05/01 11:16:45;;;;;;;14.27;10.00;;;11.90;95.20;;;;;;5098457;28;20473;-78
2021/05/01 11:19:14;;;;;;;15.75;11.35;;;11.80;95.10;;;;;;5099412;28;20061;-84
2021/05/01 11:21:44;;;;;;;14.38;10.43;;;11.80;95.00;;;;;;5095924;28;20044;-82
2021/05/01 11:24:13;;;;;;;15.00;10.18;;;11.80;95.00;;;;;;5085903;28;20052;-82
2021/05/01 11:26:46;;;;;;;15.88;10.48;;;11.80;95.20;;;;;;5089097;28;20135;-82
2021/05/01 11:29:14;;;;;;;15.52;11.07;;;11.80;95.20;;;;;;5086673;28;20076;-85
2021/05/01 11:31:43;;;;;;;15.02;10.50;;;11.90;95.00;;;;;;5102472;28;20071;-84
2021/05/01 11:34:14;;;;;;;17.63;13.18;;;11.90;95.00;;;;;;5092130;28;20087;-82
2021/05/01 11:36:49;;;;;;;16.20;11.48;;;12.00;94.30;;;;;;5094949;28;20079;-83
2021/05/01 11:39:17;;;;;;;16.65;12.07;;;12.10;94.60;;;;;;5101560;28;20048;-83
2021/05/01 11:41:46;;;;;;;15.85;11.32;;;12.10;94.30;;;;;;5103215;28;20044;-83
2021/05/01 11:44:15;;;;;;;16.40;11.35;;;12.20;94.10;;;;;;5100729;28;20048;-82
2021/05/01 11:46:50;;;;;;;14.70;10.95;;;12.20;94.00;;;;;;5094539;28;20473;-82
2021/05/01 11:49:22;;;;;;;15.32;11.40;;;12.30;94.30;;;;;;5092653;28;20127;-82
2021/05/01 11:52:14;;;;;;;15.00;10.82;;;12.30;94.00;;;;;;5093859;28;20048;-82
2021/05/01 11:55:03;;;;;;;15.30;11.18;;;12.30;94.30;;;;;;5082843;28;20123;-82
2021/05/01 11:57:41;;;;;;;16.33;11.23;;;12.30;94.20;;;;;;5103032;28;20064;-84
2021/05/01 12:00:10;;;;;;;16.00;11.43;;;12.10;94.10;;;;;;5103299;28;20048;-83
2021/05/01 12:02:39;;;;;;;17.48;12.38;;;12.10;94.30;;;;;;5090738;28;20122;-82
2021/05/01 12:05:13;;;;;;;16.65;11.68;;;12.10;94.40;;;;;;5093412;28;20048;-82
2021/05/01 12:07:45;;;;;;;14.63;10.65;;;12.10;94.50;;;;;;5090513;28;20123;-80
2021/05/01 12:10:16;;;;;;;16.00;11.48;;;12.20;94.50;;;;;;5076993;28;20119;-79
2021/05/01 12:12:58;;;;;;;14.55;10.32;;;12.20;94.30;;;;;;5083888;28;20072;-83
2021/05/01 12:15:33;;;;;;;16.83;11.82;;;12.30;94.20;;;;;;5095919;28;20044;-83
2021/05/01 12:18:02;;;;;;;15.73;11.48;;;12.30;94.30;;;;;;5093606;28;20040;-83
2021/05/01 12:20:30;;;;;;;17.48;12.57;;;12.30;94.40;;;;;;5092558;28;20044;-83
2021/05/01 12:23:05;;;;;;;18.27;12.95;;;12.30;94.10;;;;;;5090517;28;20084;-83
2021/05/01 12:25:44;;;;;;;16.77;12.27;;;12.30;94.00;;;;;;5092794;28;20437;-83
2021/05/01 12:28:11;;;;;;;15.88;10.88;;;12.30;93.90;;;;;;5096461;28;20071;-85
2021/05/01 12:31:03;;;;;;;17.05;11.88;;;12.20;94.30;;;;;;5075199;28;20044;-84
2021/05/01 12:33:53;;;;;;;16.55;11.90;;;12.30;94.70;;;;;;5089960;28;20048;-83
2021/05/01 12:36:28;;;;;;;16.77;11.88;;;12.30;94.50;;;;;;5096790;28;20052;-82
2021/05/01 12:38:58;;;;;;;16.35;12.32;;;12.30;94.40;;;;;;5097119;28;20080;-83
2021/05/01 12:41:30;;;;;;;16.05;12.10;;;12.30;94.20;;;;;;5097210;28;20113;-84